S/y Libra — SE9258 — position and weather

sailwx.info

Track history (hours):
 
Tides and Currents Weather Stations Pressure Air Temp Water Temp Dewpoint Dewpoint Depression Visibility Wind Speed Wind Dir Waves Ship Positions

S/y Libra

Last reported at 2018-May-23 14:30 UTC. Time now 2018-Jun-23 00:52 UTC.
Position N 40°47' E 014°16'.
Warning: this ship's position is 30 days out of date.

Length 10 m.

Type: Sailing vessel. MMSI: 265562060.

Date/timePositionNaut miles runAvg speedWind from/ knotsBaromVisibWave heightAir tempDewpointWater temp
2018-May-23 14:30N 40°47' E 014°16'3 5.3
2018-May-23 14:00N 40°45' E 014°16'2 4.5
2018-May-23 13:29N 40°42' E 014°17'2 4.0
2018-May-23 12:59N 40°40' E 014°17'2 4.0
2018-May-23 12:29N 40°38' E 014°17'  
2018-May-21 08:18N 40°36' E 014°31'2 4.9
2018-May-21 07:53N 40°36' E 014°29'7 0.4
2018-May-20 13:54N 40°37' E 014°20'2 4.4
2018-May-20 13:26N 40°38' E 014°22'1 1.6
2018-May-20 12:55N 40°38' E 014°23'0 0.0
2018-May-19 13:11N 40°38' E 014°23'0 0.0
2018-May-19 12:59N 40°38' E 014°23'0 0.3
2018-May-19 12:29N 40°38' E 014°23'0 0.6
2018-May-19 11:59N 40°38' E 014°23'0 0.0
2018-May-19 11:28N 40°38' E 014°23'0 0.0
2018-May-19 10:50N 40°38' E 014°23'0 0.0
2018-May-19 10:26N 40°38' E 014°23'0 0.0
2018-May-19 09:56N 40°38' E 014°23'0 0.0
2018-May-19 09:26N 40°38' E 014°23'0 0.0
2018-May-19 08:56N 40°38' E 014°23'0 0.0
2018-May-19 08:26N 40°38' E 014°23'0 0.2
2018-May-19 05:43N 40°38' E 014°23'0 0.0
2018-May-18 15:40N 40°38' E 014°23'0 0.0
2018-May-18 15:28N 40°38' E 014°23'0 0.4
2018-May-18 14:59N 40°38' E 014°23'2 3.1
2018-May-18 14:30N 40°38' E 014°21'3 5.2
2018-May-18 13:59N 40°37' E 014°18'1 0.2
2018-May-18 09:29N 40°36' E 014°18'2 5.1
2018-May-18 09:00N 40°38' E 014°20'2 3.8
2018-May-18 08:28N 40°38' E 014°23'0 0.0
2018-May-17 10:47N 40°38' E 014°23'0 0.0
2018-May-17 10:29N 40°38' E 014°23'1 1.2
2018-May-17 10:00N 40°38' E 014°22'2 4.6
2018-May-17 09:30N 40°38' E 014°19'  
Track history (hours):
 
Tides and Currents Weather Stations Pressure Air Temp Water Temp Dewpoint Dewpoint Depression Visibility Wind Speed Wind Dir Waves Ship Positions

S/y Libra

Last reported at 2018-May-23 14:30 UTC. Time now 2018-Jun-23 00:52 UTC.
Position N 40°47' E 014°16'.
Warning: this ship's position is 30 days out of date.

Length 10 m.

Type: Sailing vessel. MMSI: 265562060.

Date/timePositionNaut miles runAvg speedWind from/ knotsBaromVisibWave heightAir tempDewpointWater temp
2018-May-23 14:30N 40°47' E 014°16'3 5.3
2018-May-23 14:00N 40°45' E 014°16'2 4.5
2018-May-23 13:29N 40°42' E 014°17'2 4.0
2018-May-23 12:59N 40°40' E 014°17'2 4.0
2018-May-23 12:29N 40°38' E 014°17'  
2018-May-21 08:18N 40°36' E 014°31'2 4.9
2018-May-21 07:53N 40°36' E 014°29'7 0.4
2018-May-20 13:54N 40°37' E 014°20'2 4.4
2018-May-20 13:26N 40°38' E 014°22'1 1.6
2018-May-20 12:55N 40°38' E 014°23'0 0.0
2018-May-19 13:11N 40°38' E 014°23'0 0.0
2018-May-19 12:59N 40°38' E 014°23'0 0.3
2018-May-19 12:29N 40°38' E 014°23'0 0.6
2018-May-19 11:59N 40°38' E 014°23'0 0.0
2018-May-19 11:28N 40°38' E 014°23'0 0.0
2018-May-19 10:50N 40°38' E 014°23'0 0.0
2018-May-19 10:26N 40°38' E 014°23'0 0.0
2018-May-19 09:56N 40°38' E 014°23'0 0.0
2018-May-19 09:26N 40°38' E 014°23'0 0.0
2018-May-19 08:56N 40°38' E 014°23'0 0.0
2018-May-19 08:26N 40°38' E 014°23'0 0.2
2018-May-19 05:43N 40°38' E 014°23'0 0.0
2018-May-18 15:40N 40°38' E 014°23'0 0.0
2018-May-18 15:28N 40°38' E 014°23'0 0.4
2018-May-18 14:59N 40°38' E 014°23'2 3.1
2018-May-18 14:30N 40°38' E 014°21'3 5.2
2018-May-18 13:59N 40°37' E 014°18'1 0.2
2018-May-18 09:29N 40°36' E 014°18'2 5.1
2018-May-18 09:00N 40°38' E 014°20'2 3.8
2018-May-18 08:28N 40°38' E 014°23'0 0.0
2018-May-17 10:47N 40°38' E 014°23'0 0.0
2018-May-17 10:29N 40°38' E 014°23'1 1.2
2018-May-17 10:00N 40°38' E 014°22'2 4.6
2018-May-17 09:30N 40°38' E 014°19'  

Dump ship's entire track history